Time;durP1;ratioP1;P1;durP2;ratioP2;P2;SDS_P1;SDS_P2;PMS_P1;PMS_P2;Temp;Humidity;BMP_temperature;BMP_pressure;BME280_temperature;BME280_humidity;BME280_pressure;Samples;Min_cycle;Max_cycle;Signal;HPM_P1;HPM_P2
2022/07/09 00:00:58;;;;;;;11.57;5.65;;;;;;;16.90;91.49;102808.97;4994287;28;20022;-69
2022/07/09 00:03:24;;;;;;;10.82;5.15;;;;;;;16.97;91.19;102796.00;4995615;28;20077;-69
2022/07/09 00:05:49;;;;;;;8.57;5.20;;;;;;;16.88;90.62;102797.91;4994875;28;20030;-70
2022/07/09 00:08:14;;;;;;;11.98;5.45;;;;;;;16.82;90.95;102796.00;4993282;28;20077;-69
2022/07/09 00:10:40;;;;;;;10.63;5.25;;;;;;;16.67;91.97;102793.34;4992361;28;20026;-72
2022/07/09 00:13:05;;;;;;;11.65;5.35;;;;;;;16.57;92.35;102790.22;4995316;28;20064;-69
2022/07/09 00:15:30;;;;;;;10.77;5.50;;;;;;;16.47;93.54;102789.63;4994331;28;20044;-69
2022/07/09 00:17:56;;;;;;;10.60;5.57;;;;;;;16.49;93.59;102787.66;4995364;28;20026;-69
2022/07/09 00:20:21;;;;;;;10.07;4.97;;;;;;;16.53;93.84;102791.53;4993949;28;20026;-69
2022/07/09 00:22:46;;;;;;;12.57;5.65;;;;;;;16.61;94.19;102777.59;4995257;28;20105;-69
2022/07/09 00:25:11;;;;;;;9.57;5.22;;;;;;;16.61;92.69;102794.06;5010327;28;20390;-70
2022/07/09 00:27:37;;;;;;;10.75;5.80;;;;;;;16.46;93.40;102772.38;4993854;28;20110;-69
2022/07/09 00:30:03;;;;;;;11.73;5.70;;;;;;;16.66;93.35;102783.09;4995114;28;20461;-69
2022/07/09 00:32:28;;;;;;;11.88;5.22;;;;;;;16.68;93.04;102779.31;4994101;28;20027;-70
2022/07/09 00:34:53;;;;;;;10.15;5.85;;;;;;;16.65;93.05;102769.22;4995183;28;20382;-69
2022/07/09 00:37:19;;;;;;;12.57;5.55;;;;;;;16.61;93.53;102783.63;4993841;28;20496;-69
2022/07/09 00:39:44;;;;;;;11.48;5.97;;;;;;;16.52;93.73;102776.06;4994766;28;20153;-69
2022/07/09 00:42:11;;;;;;;13.55;6.95;;;;;;;16.53;94.42;102781.09;4994716;28;20050;-68
2022/07/09 00:44:37;;;;;;;17.67;6.15;;;;;;;16.48;94.33;102786.03;4994786;28;20048;-69
2022/07/09 00:47:07;;;;;;;17.55;6.15;;;;;;;16.46;94.53;102788.03;4994393;28;20085;-68
2022/07/09 00:49:40;;;;;;;10.60;6.80;;;;;;;16.47;95.23;102784.41;4993593;28;20022;-69
2022/07/09 00:52:06;;;;;;;;;;;;;;;16.50;95.10;102784.06;4995172;28;20157;-68
2022/07/09 00:54:32;;;;;;;13.10;6.13;;;;;;;16.49;95.34;102779.03;4994667;28;20417;-69
2022/07/09 00:56:58;;;;;;;13.70;6.30;;;;;;;16.46;95.26;102780.19;4994695;28;20022;-69
2022/07/09 00:59:23;;;;;;;11.52;6.53;;;;;;;16.42;95.85;102781.53;4993642;28;20493;-68
2022/07/09 01:01:50;;;;;;;13.80;6.88;;;;;;;16.45;95.81;102773.34;4994585;28;20023;-68
2022/07/09 01:04:15;;;;;;;14.45;6.80;;;;;;;16.33;96.04;102762.53;4993262;28;20022;-68
2022/07/09 01:06:41;;;;;;;12.35;6.53;;;;;;;16.39;96.56;102777.47;4993336;28;20040;-68
2022/07/09 01:09:07;;;;;;;16.20;7.47;;;;;;;16.32;96.02;102776.56;4993015;28;20386;-69
2022/07/09 01:11:32;;;;;;;12.80;6.90;;;;;;;16.34;96.61;102787.63;4994301;28;20050;-68
2022/07/09 01:13:57;;;;;;;15.98;8.18;;;;;;;16.43;96.45;102780.56;4994495;28;20068;-70
2022/07/09 01:16:31;;;;;;;14.38;8.93;;;;;;;16.37;96.67;102776.84;4994225;28;20485;-68
2022/07/09 01:18:56;;;;;;;15.55;8.32;;;;;;;16.43;97.32;102778.75;4994281;28;20089;-69
2022/07/09 01:21:21;;;;;;;13.98;8.40;;;;;;;16.43;96.22;102765.69;4993497;28;20470;-70
2022/07/09 01:23:46;;;;;;;16.60;8.75;;;;;;;16.29;97.09;102769.09;4994113;28;20113;-70
2022/07/09 01:26:12;;;;;;;15.52;9.68;;;;;;;16.28;97.62;102769.25;4994123;28;20367;-67
2022/07/09 01:28:37;;;;;;;17.55;9.70;;;;;;;16.38;98.59;102770.63;4994054;28;20034;-69
2022/07/09 01:31:02;;;;;;;17.17;9.68;;;;;;;16.34;97.30;102760.72;5009157;28;20468;-68
2022/07/09 01:33:28;;;;;;;14.82;9.15;;;;;;;16.40;97.88;102758.22;4992809;28;20026;-69
2022/07/09 01:35:53;;;;;;;14.55;9.30;;;;;;;16.33;97.87;102759.09;4994037;28;20105;-69
2022/07/09 01:38:18;;;;;;;16.20;9.75;;;;;;;16.29;97.42;102748.22;4992619;28;20037;-69
2022/07/09 01:40:43;;;;;;;18.63;10.30;;;;;;;16.21;98.31;102756.91;4992571;28;20389;-69
2022/07/09 01:43:09;;;;;;;20.52;10.45;;;;;;;16.19;98.30;102753.66;4993819;28;20104;-68
2022/07/09 01:45:34;;;;;;;22.88;11.07;;;;;;;16.39;99.10;102742.75;4992567;28;20540;-68
2022/07/09 01:47:59;;;;;;;18.42;10.30;;;;;;;16.44;98.13;102743.03;4993888;28;20022;-70
2022/07/09 01:50:25;;;;;;;16.92;10.73;;;;;;;16.38;97.56;102741.13;4991749;28;20105;-69
2022/07/09 01:52:50;;;;;;;16.10;10.27;;;;;;;16.31;98.07;102737.59;4992861;28;20050;-68
2022/07/09 01:55:16;;;;;;;16.60;10.68;;;;;;;16.27;98.62;102744.16;4992343;28;20026;-69
2022/07/09 01:57:41;;;;;;;20.88;10.52;;;;;;;16.33;99.16;102738.22;4992159;28;20034;-69
2022/07/09 02:00:07;;;;;;;20.77;11.25;;;;;;;16.33;98.16;102733.81;4992687;28;20452;-69
2022/07/09 02:02:33;;;;;;;21.63;11.65;;;;;;;16.29;98.42;102743.00;4993126;28;20525;-68
2022/07/09 02:04:58;;;;;;;22.13;12.20;;;;;;;16.29;98.37;102736.97;4993635;28;20027;-69
2022/07/09 02:07:23;;;;;;;19.33;11.35;;;;;;;16.23;98.41;102734.09;4993633;28;20022;-69
2022/07/09 02:09:49;;;;;;;20.17;11.75;;;;;;;16.22;98.94;102732.44;4993711;28;20061;-69
2022/07/09 02:12:16;;;;;;;20.33;12.68;;;;;;;16.23;99.27;102734.09;4993683;28;20026;-68
2022/07/09 02:14:42;;;;;;;25.65;12.60;;;;;;;16.23;99.59;102733.28;4993623;28;20097;-68
2022/07/09 02:17:07;;;;;;;22.02;13.32;;;;;;;16.30;99.45;102736.78;4991609;28;20141;-68
2022/07/09 02:19:32;;;;;;;19.15;12.20;;;;;;;16.34;99.17;102732.84;4993582;28;20029;-68
2022/07/09 02:21:58;;;;;;;23.80;13.07;;;;;;;16.42;100.00;102729.34;4993381;28;20080;-68
2022/07/09 02:24:23;;;;;;;22.02;12.57;;;;;;;16.49;99.57;102717.22;4992421;28;20033;-70
2022/07/09 02:26:49;;;;;;;19.48;12.65;;;;;;;16.58;99.16;102731.78;4992493;28;20038;-69
2022/07/09 02:29:14;;;;;;;24.05;13.88;;;;;;;16.66;99.27;102729.09;4992191;28;20062;-68
2022/07/09 02:31:39;;;;;;;20.13;13.18;;;;;;;16.75;99.58;102732.44;4992190;28;20019;-68
2022/07/09 02:34:04;;;;;;;22.50;13.23;;;;;;;16.83;98.71;102734.97;4993751;28;20022;-68
2022/07/09 02:36:30;;;;;;;22.17;12.90;;;;;;;16.90;98.33;102730.63;4994034;28;20058;-68
2022/07/09 02:38:55;;;;;;;20.83;12.82;;;;;;;16.88;98.33;102737.03;4992335;28;20394;-68
2022/07/09 02:41:20;;;;;;;23.67;13.65;;;;;;;16.85;98.43;102732.97;4992048;28;20121;-69
2022/07/09 02:43:46;;;;;;;22.83;13.35;;;;;;;16.82;98.83;102735.16;4993241;28;20109;-69
2022/07/09 02:46:11;;;;;;;20.85;12.40;;;;;;;16.92;98.69;102739.13;4991985;28;20030;-70
2022/07/09 02:48:37;;;;;;;23.38;13.75;;;;;;;16.96;97.93;102721.28;4991965;28;20030;-70
2022/07/09 02:51:03;;;;;;;19.90;13.30;;;;;;;16.97;98.28;102729.91;4993233;28;20030;-69
2022/07/09 02:53:28;;;;;;;19.33;13.10;;;;;;;17.02;98.10;102733.59;4993208;28;20108;-69
2022/07/09 02:55:54;;;;;;;25.75;14.45;;;;;;;16.84;98.01;102707.06;4991908;28;20033;-68
2022/07/09 02:58:19;;;;;;;22.63;13.73;;;;;;;16.84;98.86;102722.72;4993190;28;20105;-68
2022/07/09 03:00:44;;;;;;;21.83;13.75;;;;;;;16.87;98.70;102725.78;4991801;28;20034;-70
2022/07/09 03:03:10;;;;;;;21.38;13.90;;;;;;;16.87;97.88;102724.97;4992123;28;20049;-69
2022/07/09 03:05:35;;;;;;;22.80;14.07;;;;;;;16.77;98.29;102722.63;4993186;28;20105;-68
2022/07/09 03:08:02;;;;;;;24.25;13.52;;;;;;;16.66;98.71;102703.00;4993191;28;20389;-69
2022/07/09 03:10:27;;;;;;;24.48;13.60;;;;;;;16.83;99.06;102718.47;4991864;28;20022;-68
2022/07/09 03:12:53;;;;;;;20.83;13.02;;;;;;;16.83;98.98;102716.69;4995356;28;20543;-68
2022/07/09 03:15:18;;;;;;;23.13;12.77;;;;;;;16.77;97.66;102721.81;4995282;28;20030;-69
2022/07/09 03:17:45;;;;;;;22.45;13.45;;;;;;;16.81;98.29;102715.25;4996464;28;20023;-68
2022/07/09 03:20:11;;;;;;;24.63;13.88;;;;;;;16.86;98.52;102710.28;4995251;28;20032;-69
2022/07/09 03:22:37;;;;;;;22.38;13.40;;;;;;;16.87;98.54;102719.75;4996525;28;20057;-69
2022/07/09 03:25:04;;;;;;;23.88;13.90;;;;;;;16.96;98.09;102713.44;4996405;28;20049;-70
2022/07/09 03:27:29;;;;;;;19.45;12.65;;;;;;;16.90;97.70;102712.38;4995076;28;20073;-69
2022/07/09 03:29:54;;;;;;;21.88;13.43;;;;;;;16.78;97.70;102710.41;5011435;28;20054;-69
2022/07/09 03:32:20;;;;;;;24.35;12.90;;;;;;;16.60;98.48;102715.94;4996315;28;20018;-70
2022/07/09 03:34:45;;;;;;;20.63;13.23;;;;;;;16.52;98.80;102716.84;4996248;28;20022;-68
2022/07/09 03:37:10;;;;;;;22.00;13.88;;;;;;;16.42;99.61;102718.91;4996250;28;20026;-69
2022/07/09 03:39:36;;;;;;;21.63;13.02;;;;;;;16.43;99.94;102723.94;4995964;28;20394;-67
2022/07/09 03:42:01;;;;;;;21.50;13.55;;;;;;;16.39;99.48;102725.28;4995836;28;20047;-69
2022/07/09 03:44:27;;;;;;;20.00;13.35;;;;;;;16.26;100.00;102722.50;4994805;28;20497;-69
2022/07/09 03:46:52;;;;;;;24.48;13.63;;;;;;;16.37;100.00;102721.22;4994770;28;20026;-68
2022/07/09 03:49:17;;;;;;;22.33;13.23;;;;;;;16.41;100.00;102715.47;4994641;28;20026;-69
2022/07/09 03:51:43;;;;;;;22.10;13.90;;;;;;;16.54;100.00;102720.06;4995811;28;20069;-69
2022/07/09 03:54:09;;;;;;;26.05;13.95;;;;;;;16.64;100.00;102712.00;4995981;28;20026;-69
2022/07/09 03:56:35;;;;;;;21.33;13.73;;;;;;;16.63;99.78;102700.75;4995868;28;20037;-69
2022/07/09 03:59:00;;;;;;;26.05;14.52;;;;;;;16.69;99.25;102694.81;4994494;28;20053;-70
2022/07/09 04:01:25;;;;;;;22.33;13.95;;;;;;;16.82;99.06;102699.41;4995594;28;20027;-69
2022/07/09 04:03:51;;;;;;;22.17;13.05;;;;;;;17.03;98.45;102695.22;4994384;28;20026;-68
2022/07/09 04:06:16;;;;;;;22.00;13.27;;;;;;;17.03;97.74;102696.06;4994342;28;20027;-68
2022/07/09 04:08:41;;;;;;;23.45;13.70;;;;;;;16.99;98.14;102694.78;4995563;28;20033;-69
2022/07/09 04:11:07;;;;;;;20.23;13.25;;;;;;;16.98;98.22;102697.59;4995631;28;20105;-68
2022/07/09 04:13:32;;;;;;;20.00;12.98;;;;;;;16.90;98.57;102696.69;4994069;28;20430;-68
2022/07/09 04:15:58;;;;;;;23.48;12.85;;;;;;;16.99;98.39;102696.59;4995497;28;20033;-69
2022/07/09 04:18:23;;;;;;;22.38;13.05;;;;;;;17.02;98.46;102691.81;4995395;28;20023;-68
2022/07/09 04:20:48;;;;;;;23.50;13.07;;;;;;;17.02;98.18;102688.38;4994033;28;20030;-68
2022/07/09 04:23:13;;;;;;;23.20;13.10;;;;;;;16.97;98.58;102683.72;4993433;28;20041;-68
2022/07/09 04:25:39;;;;;;;21.08;13.45;;;;;;;17.06;98.62;102681.78;4993904;28;20030;-69
2022/07/09 04:28:05;;;;;;;21.52;12.68;;;;;;;17.16;97.68;102687.56;4995322;28;20033;-68
2022/07/09 04:30:30;;;;;;;20.85;11.80;;;;;;;17.20;97.38;102682.75;4995243;28;20433;-68
2022/07/09 04:32:57;;;;;;;20.80;11.85;;;;;;;17.36;96.58;102691.19;4994211;28;20157;-70
2022/07/09 04:35:22;;;;;;;24.23;12.68;;;;;;;17.37;96.24;102686.75;4995105;28;20058;-69
2022/07/09 04:37:48;;;;;;;20.02;11.93;;;;;;;17.57;96.16;102686.94;4995072;28;20478;-70
2022/07/09 04:40:13;;;;;;;21.13;12.60;;;;;;;17.63;95.24;102680.97;4995081;28;20023;-68
2022/07/09 04:42:38;;;;;;;18.85;11.98;;;;;;;17.63;94.62;102674.94;4993404;28;20564;-68
2022/07/09 04:45:04;;;;;;;20.67;12.25;;;;;;;17.71;94.91;102680.03;4993560;28;20031;-68
2022/07/09 04:47:29;;;;;;;19.75;11.95;;;;;;;17.76;94.35;102672.44;4994802;28;20104;-68
2022/07/09 04:49:54;;;;;;;18.10;11.18;;;;;;;17.84;93.40;102676.75;4993569;28;20065;-69
2022/07/09 04:52:20;;;;;;;20.83;11.82;;;;;;;17.66;94.42;102669.34;4994849;28;20022;-68
2022/07/09 04:54:47;;;;;;;25.65;11.70;;;;;;;17.91;93.94;102670.59;4994809;28;20033;-68
2022/07/09 04:57:12;;;;;;;17.33;11.00;;;;;;;18.15;91.77;102665.91;4994729;28;20109;-68
2022/07/09 04:59:38;;;;;;;20.00;11.90;;;;;;;18.27;90.88;102661.78;4994702;28;20458;-68
2022/07/09 05:02:03;;;;;;;19.67;12.35;;;;;;;18.39;89.86;102665.47;4993283;28;20494;-69
2022/07/09 05:04:29;;;;;;;17.88;11.30;;;;;;;18.38;90.32;102666.44;4994631;28;20034;-68
2022/07/09 05:06:55;;;;;;;19.52;11.93;;;;;;;18.43;90.17;102666.69;4993180;28;20509;-69
2022/07/09 05:09:20;;;;;;;17.13;11.30;;;;;;;18.56;89.83;102667.75;4993264;28;20056;-69
2022/07/09 05:11:45;;;;;;;19.70;12.02;;;;;;;18.34;90.72;102660.00;5009518;28;20072;-68
2022/07/09 05:14:11;;;;;;;18.90;12.07;;;;;;;18.36;90.54;102662.44;4994375;28;20026;-68
2022/07/09 05:16:36;;;;;;;17.45;11.50;;;;;;;18.38;91.43;102676.13;4994366;28;20022;-68
2022/07/09 05:19:02;;;;;;;18.10;10.90;;;;;;;18.38;91.24;102660.41;4994291;28;20033;-69
2022/07/09 05:21:27;;;;;;;16.63;12.07;;;;;;;18.43;90.76;102666.69;4994275;28;20057;-69
2022/07/09 05:23:52;;;;;;;16.98;11.48;;;;;;;18.56;89.88;102662.50;4994198;28;20030;-68
2022/07/09 05:26:17;;;;;;;19.02;11.43;;;;;;;18.43;90.06;102660.66;4994293;28;20022;-68
2022/07/09 05:28:43;;;;;;;18.70;11.77;;;;;;;18.44;90.05;102663.09;4992884;28;20067;-67
2022/07/09 05:31:08;;;;;;;18.08;12.30;;;;;;;18.59;90.23;102657.72;4994046;28;20228;-68
2022/07/09 05:33:33;;;;;;;19.70;12.93;;;;;;;18.72;88.87;102652.53;4993671;28;20026;-69
2022/07/09 05:35:59;;;;;;;18.33;12.55;;;;;;;18.81;88.30;102658.41;4993983;28;20470;-68
2022/07/09 05:38:24;;;;;;;18.38;12.65;;;;;;;18.59;89.18;102657.72;4994045;28;20113;-69
2022/07/09 05:40:50;;;;;;;20.58;12.40;;;;;;;18.52;89.44;102659.47;4992590;28;20027;-69
2022/07/09 05:43:16;;;;;;;18.85;11.93;;;;;;;18.96;89.04;102666.16;4993807;28;20052;-68
2022/07/09 05:45:41;;;;;;;15.50;11.43;;;;;;;19.61;85.12;102671.69;4993974;28;20117;-69
2022/07/09 05:48:07;;;;;;;18.00;11.27;;;;;;;20.14;82.33;102676.13;4993833;28;20389;-68
2022/07/09 05:50:32;;;;;;;16.08;10.57;;;;;;;20.35;80.36;102664.59;4993776;28;20571;-69
2022/07/09 05:52:57;;;;;;;15.02;10.30;;;;;;;19.95;82.07;102668.09;4993845;28;20030;-68
2022/07/09 05:55:23;;;;;;;16.33;10.50;;;;;;;19.63;83.69;102672.31;4993835;28;20058;-69
2022/07/09 05:57:48;;;;;;;14.02;9.27;;;;;;;19.65;84.29;102662.47;4993759;28;20022;-70
2022/07/09 06:00:13;;;;;;;13.38;9.98;;;;;;;20.20;81.78;102667.47;5008704;28;20053;-69
2022/07/09 06:02:39;;;;;;;15.15;11.35;;;;;;;21.61;77.18;102664.75;4993448;28;20381;-70
2022/07/09 06:05:04;;;;;;;14.93;9.27;;;;;;;23.90;65.62;102668.56;4993698;28;20030;-69
2022/07/09 06:07:29;;;;;;;13.32;9.73;;;;;;;21.14;74.93;102669.50;4992325;28;20113;-69
2022/07/09 06:09:55;;;;;;;11.35;7.70;;;;;;;20.28;79.66;102668.03;4992314;28;20026;-69
2022/07/09 06:12:20;;;;;;;12.20;7.38;;;;;;;20.96;77.81;102670.22;4993488;28;20124;-71
2022/07/09 06:14:45;;;;;;;10.25;6.45;;;;;;;21.45;74.65;102667.91;4993598;28;20031;-69
2022/07/09 06:17:11;;;;;;;13.43;6.68;;;;;;;20.87;77.25;102675.94;4993665;28;20026;-69
2022/07/09 06:19:37;;;;;;;12.55;6.68;;;;;;;20.21;80.27;102667.22;4992273;28;20394;-69
2022/07/09 06:22:02;;;;;;;10.20;6.05;;;;;;;20.50;79.68;102675.63;4993729;28;20061;-70
2022/07/09 06:24:28;;;;;;;8.52;6.00;;;;;;;20.89;77.05;102669.47;4993522;28;20030;-69
2022/07/09 06:26:53;;;;;;;9.48;5.78;;;;;;;20.80;76.42;102672.50;4992130;28;20041;-69
2022/07/09 06:29:21;;;;;;;17.42;6.18;;;;;;;20.89;76.64;102661.56;4993476;28;20032;-69
2022/07/09 06:31:47;;;;;;;10.75;6.15;;;;;;;21.19;74.93;102653.91;4992271;28;20027;-69
2022/07/09 06:34:12;;;;;;;9.70;5.82;;;;;;;20.86;76.75;102658.53;4993336;28;20030;-69
2022/07/09 06:36:38;;;;;;;9.20;6.03;;;;;;;22.30;72.67;102659.47;4993573;28;20034;-68
2022/07/09 06:41:47;;;;;;;8.35;5.28;;;;;;;24.69;60.16;102663.59;4993538;28;20034;-69
2022/07/09 06:44:13;;;;;;;7.78;5.55;;;;;;;25.83;58.04;102670.47;4993159;28;20429;-69
2022/07/09 06:46:38;;;;;;;10.75;5.50;;;;;;;24.53;60.66;102682.81;4995079;28;20112;-69
2022/07/09 06:49:04;;;;;;;13.20;6.45;;;;;;;25.05;58.74;102684.56;4996496;28;20390;-69
2022/07/09 06:51:29;;;;;;;10.23;6.15;;;;;;;22.48;67.56;102677.91;4997138;28;20049;-70
2022/07/09 06:53:55;;;;;;;10.40;6.22;;;;;;;24.49;62.12;102669.28;4997063;28;20022;-69
2022/07/09 06:56:21;;;;;;;9.55;5.80;;;;;;;23.99;63.16;102663.72;4995711;28;20026;-68
2022/07/09 06:58:46;;;;;;;9.80;6.13;;;;;;;23.68;64.40;102673.59;4996221;28;20053;-71
2022/07/09 07:01:11;;;;;;;12.73;6.45;;;;;;;22.41;68.63;102671.09;4995917;28;20027;-69
2022/07/09 07:03:36;;;;;;;13.43;6.50;;;;;;;21.84;71.47;102676.50;4996951;28;20037;-70
2022/07/09 07:06:02;;;;;;;16.05;6.00;;;;;;;21.93;71.06;102675.22;4996790;28;20444;-69
2022/07/09 07:08:27;;;;;;;14.02;6.63;;;;;;;21.70;71.53;102667.94;4995435;28;20026;-69
2022/07/09 07:10:52;;;;;;;10.98;6.05;;;;;;;21.88;70.81;102668.97;4997469;28;20018;-69
2022/07/09 07:13:17;;;;;;;10.90;6.43;;;;;;;21.57;72.11;102683.81;5011727;28;20385;-67
2022/07/09 07:15:44;;;;;;;12.25;6.45;;;;;;;21.56;73.22;102684.84;4996672;28;20109;-70
2022/07/09 07:18:10;;;;;;;11.63;5.70;;;;;;;21.69;72.16;102679.44;4996516;28;20026;-69
2022/07/09 07:20:35;;;;;;;9.65;5.75;;;;;;;21.48;74.25;102675.38;4996387;28;20034;-68
2022/07/09 07:23:00;;;;;;;11.15;5.95;;;;;;;20.94;76.13;102682.78;4995249;28;20026;-68
2022/07/09 07:25:26;;;;;;;10.45;5.97;;;;;;;20.85;76.54;102688.47;4979119;28;20054;-69
2022/07/09 07:27:51;;;;;;;7.75;4.70;;;;;;;20.86;75.84;102684.81;4996840;28;20031;-69
2022/07/09 07:30:17;;;;;;;6.18;3.33;;;;;;;20.61;73.01;102661.91;4995463;28;20046;-68
2022/07/09 07:32:42;;;;;;;7.00;3.35;;;;;;;21.02;70.67;102681.72;4996635;28;20018;-68
2022/07/09 07:35:08;;;;;;;6.10;2.85;;;;;;;20.98;71.09;102679.72;4996459;28;20030;-67
2022/07/09 07:37:33;;;;;;;8.65;2.63;;;;;;;21.37;70.11;102681.31;4994962;28;20432;-69
2022/07/09 07:39:58;;;;;;;6.30;2.70;;;;;;;21.77;68.79;102681.00;4996260;28;20512;-69
2022/07/09 07:42:24;;;;;;;8.85;2.65;;;;;;;21.63;68.33;102678.47;4996171;28;20038;-67
2022/07/09 07:44:49;;;;;;;6.30;2.40;;;;;;;21.90;67.59;102669.59;4996251;28;20388;-69
2022/07/09 07:47:14;;;;;;;5.85;2.65;;;;;;;21.81;67.83;102676.94;4994746;28;20089;-69
2022/07/09 07:49:40;;;;;;;5.55;2.75;;;;;;;21.58;68.09;102680.19;4995976;28;20053;-69
2022/07/09 07:52:05;;;;;;;6.60;2.67;;;;;;;21.60;69.11;102676.28;4995610;28;20453;-69
2022/07/09 07:54:31;;;;;;;5.55;2.70;;;;;;;21.75;68.31;102677.78;4994156;28;20088;-68
2022/07/09 07:56:57;;;;;;;5.90;2.80;;;;;;;21.57;68.36;102684.59;4995691;28;20022;-68
2022/07/09 07:59:22;;;;;;;6.45;2.92;;;;;;;21.57;68.30;102679.34;4995915;28;20037;-68
2022/07/09 08:01:47;;;;;;;5.78;3.00;;;;;;;21.55;68.92;102681.41;4995636;28;20113;-69
2022/07/09 08:04:12;;;;;;;6.43;3.00;;;;;;;21.29;70.07;102685.00;4994120;28;20036;-68
2022/07/09 08:06:38;;;;;;;6.40;2.60;;;;;;;21.25;69.35;102685.63;4995847;28;20027;-68
2022/07/09 08:09:03;;;;;;;3.95;2.28;;;;;;;21.19;69.77;102679.38;4995712;28;20547;-68
2022/07/09 08:11:29;;;;;;;5.28;2.58;;;;;;;21.26;69.74;102687.22;4994208;28;20049;-68
2022/07/09 08:13:54;;;;;;;4.78;2.00;;;;;;;21.62;68.69;102684.78;4994120;28;20026;-68
2022/07/09 08:16:20;;;;;;;4.07;2.00;;;;;;;21.76;68.02;102682.84;4995503;28;20025;-68
2022/07/09 08:18:46;;;;;;;3.40;1.80;;;;;;;22.05;66.29;102678.72;4994071;28;20022;-69
2022/07/09 08:21:11;;;;;;;5.32;1.83;;;;;;;22.60;63.54;102688.50;4995111;28;20034;-68
2022/07/09 08:23:53;;;;;;;2.88;1.83;;;;;;;23.21;62.02;102684.06;4993757;28;20362;-68
2022/07/09 08:26:26;;;;;;;4.27;1.70;;;;;;;23.78;60.07;102686.25;4994512;28;20037;-69
2022/07/09 08:28:52;;;;;;;2.47;1.50;;;;;;;23.83;58.57;102673.97;4993779;28;20601;-69
2022/07/09 08:31:19;;;;;;;4.03;1.90;;;;;;;23.92;59.69;102663.84;4995010;28;20097;-69
2022/07/09 08:33:45;;;;;;;4.65;1.60;;;;;;;23.91;60.06;102669.34;4994904;28;20138;-69
2022/07/09 08:36:10;;;;;;;4.95;1.80;;;;;;;23.37;60.89;102670.22;4994846;28;20105;-69
2022/07/09 08:38:36;;;;;;;3.65;1.50;;;;;;;23.05;62.68;102672.34;4994804;28;20100;-69
2022/07/09 08:41:04;;;;;;;4.32;2.00;;;;;;;22.41;64.20;102671.09;4993366;28;20026;-69
2022/07/09 08:43:33;;;;;;;5.97;1.80;;;;;;;22.61;63.60;102670.84;4993327;28;20050;-69
2022/07/09 08:45:58;;;;;;;4.10;1.70;;;;;;;22.90;62.85;102663.97;4994832;28;20061;-71
2022/07/09 08:48:24;;;;;;;2.95;1.50;;;;;;;23.29;62.02;102661.84;4993299;28;20091;-69
2022/07/09 08:50:51;;;;;;;5.05;1.80;;;;;;;23.34;60.97;102660.13;4994875;28;20072;-70
2022/07/09 08:53:19;;;;;;;4.00;1.42;;;;;;;23.58;61.12;102658.31;4994680;28;20023;-70
2022/07/09 08:55:45;;;;;;;2.53;1.52;;;;;;;24.35;58.06;102662.63;4994793;28;20084;-70
2022/07/09 08:58:13;;;;;;;4.05;1.70;;;;;;;23.95;59.02;102659.94;4994480;28;20106;-70
2022/07/09 09:00:39;;;;;;;2.67;1.65;;;;;;;23.83;59.29;102655.47;4993126;28;20022;-70
2022/07/09 09:03:05;;;;;;;3.53;1.60;;;;;;;23.77;59.24;102659.03;4994401;28;20033;-70
2022/07/09 09:05:30;;;;;;;3.53;1.73;;;;;;;23.52;59.33;102661.06;4994336;28;20045;-70
2022/07/09 09:07:56;;;;;;;5.38;1.42;;;;;;;23.35;61.13;102660.94;4994357;28;20022;-70
2022/07/09 09:10:23;;;;;;;2.67;1.77;;;;;;;22.72;63.32;102649.03;4993532;28;20030;-71
2022/07/09 09:12:48;;;;;;;3.70;1.65;;;;;;;23.22;61.71;102647.94;4994259;28;20022;-70
2022/07/09 09:15:18;;;;;;;4.35;1.63;;;;;;;23.12;61.46;102651.94;4993364;28;20406;-70
2022/07/09 09:17:45;;;;;;;2.97;1.40;;;;;;;23.05;61.79;102656.50;4993321;28;20413;-70
2022/07/09 09:20:14;;;;;;;3.30;1.30;;;;;;;22.68;60.38;102658.41;4994546;28;20105;-70
2022/07/09 09:22:48;;;;;;;2.42;1.17;;;;;;;22.82;60.44;102651.94;4994587;28;20038;-80
2022/07/09 09:25:21;;;;;;;4.40;1.38;;;;;;;23.24;59.00;102651.16;4996857;28;20063;-80
2022/07/09 09:27:53;;;;;;;;;;;;;;;23.40;58.81;102656.56;4997776;28;20049;-81
2022/07/09 09:30:19;;;;;;;5.07;1.42;;;;;;;23.29;59.39;102652.09;5013062;28;20288;-80
2022/07/09 09:32:44;;;;;;;6.38;1.55;;;;;;;23.07;59.41;102659.72;4994649;28;20105;-73
2022/07/09 09:35:10;;;;;;;5.30;1.42;;;;;;;22.42;60.21;102676.16;4993059;28;20022;-73
2022/07/09 09:37:35;;;;;;;4.45;1.20;;;;;;;22.42;62.43;102668.25;4993385;28;20556;-73
2022/07/09 09:40:09;;;;;;;3.83;1.48;;;;;;;22.06;62.14;102672.44;4993302;28;20030;-72
2022/07/09 09:42:42;;;;;;;3.22;1.23;;;;;;;22.00;62.38;102670.66;4993887;28;20046;-72
2022/07/09 09:45:07;;;;;;;;;;;;;;;22.03;63.61;102679.97;4976526;28;20133;-73
2022/07/09 09:47:33;;;;;;;5.20;1.45;;;;;;;21.82;63.33;102652.22;4992467;28;19971;-73
2022/07/09 09:50:00;;;;;;;2.88;1.33;;;;;;;21.92;63.64;102676.22;4993137;28;20441;-73
2022/07/09 09:52:26;;;;;;;3.42;1.40;;;;;;;22.22;63.29;102678.19;4993019;28;20026;-72
2022/07/09 09:54:54;;;;;;;4.40;1.58;;;;;;;22.01;63.03;102688.09;4993073;28;20057;-75
2022/07/09 09:57:24;;;;;;;3.65;1.27;;;;;;;21.50;64.11;102694.38;4992074;28;20375;-72
2022/07/09 09:59:52;;;;;;;5.38;1.50;;;;;;;21.25;64.79;102707.47;4992089;28;20027;-72
2022/07/09 10:02:20;;;;;;;4.22;1.17;;;;;;;21.12;65.76;102697.03;4992218;28;20027;-73
2022/07/09 10:04:45;;;;;;;5.20;1.60;;;;;;;21.34;64.88;102693.03;4992609;28;20053;-73
2022/07/09 10:07:13;;;;;;;6.05;1.38;;;;;;;21.44;63.92;102697.06;4994579;28;20101;-72
2022/07/09 10:09:39;;;;;;;2.30;0.90;;;;;;;21.72;61.89;102709.78;4993939;28;20033;-72
2022/07/09 10:12:05;;;;;;;2.35;0.90;;;;;;;21.91;59.25;102703.56;4992217;28;20026;-72
2022/07/09 10:14:34;;;;;;;2.50;0.70;;;;;;;22.24;56.88;102708.56;4992206;28;20068;-71
2022/07/09 10:17:14;;;;;;;2.60;0.85;;;;;;;22.74;53.58;102707.59;4993616;28;20506;-71
2022/07/09 10:19:51;;;;;;;6.80;1.08;;;;;;;23.19;53.28;102697.47;4994144;28;20014;-72
2022/07/09 10:22:16;;;;;;;3.13;0.98;;;;;;;23.65;52.86;102703.09;4996383;28;20578;-73
2022/07/09 10:24:45;;;;;;;3.33;1.10;;;;;;;23.67;52.83;102702.84;4996276;28;20117;-73
2022/07/09 10:27:11;;;;;;;3.83;0.90;;;;;;;23.77;52.71;102706.56;4996222;28;20473;-73
2022/07/09 10:29:52;;;;;;;4.13;1.13;;;;;;;23.64;53.86;102704.91;4996286;28;20493;-74
2022/07/09 10:32:28;;;;;;;1.98;0.88;;;;;;;23.64;53.25;102688.25;4996173;28;20597;-73
2022/07/09 10:35:02;;;;;;;4.15;1.05;;;;;;;23.88;52.49;102712.88;4997428;28;20037;-73
2022/07/09 10:37:42;;;;;;;5.10;1.13;;;;;;;24.13;51.22;102703.91;4997461;28;20062;-71
2022/07/09 10:40:15;;;;;;;4.07;1.27;;;;;;;23.80;53.03;102705.31;4997326;28;20072;-73
2022/07/09 10:42:43;;;;;;;5.35;1.38;;;;;;;23.84;53.90;102701.94;4997148;28;20061;-72
2022/07/09 10:45:17;;;;;;;2.35;1.00;;;;;;;23.29;52.66;102704.03;4995846;28;20026;-73
2022/07/09 10:47:46;;;;;;;5.85;1.40;;;;;;;23.53;52.92;102707.50;4997180;28;20116;-71
2022/07/09 10:50:12;;;;;;;5.72;1.20;;;;;;;23.61;52.22;102699.28;4995698;28;20098;-73
2022/07/09 10:52:38;;;;;;;2.45;0.80;;;;;;;23.74;52.12;102707.00;4997058;28;20529;-73
2022/07/09 10:55:03;;;;;;;7.40;1.20;;;;;;;23.67;53.47;102705.47;4995606;28;20497;-72
2022/07/09 10:57:29;;;;;;;2.17;0.85;;;;;;;23.81;53.10;102704.25;4995778;28;20050;-72
2022/07/09 10:59:54;;;;;;;3.90;1.08;;;;;;;24.58;51.25;102709.34;4995558;28;20030;-72
2022/07/09 11:02:23;;;;;;;11.85;1.30;;;;;;;24.86;50.26;102700.66;4996664;28;20030;-73
2022/07/09 11:04:52;;;;;;;5.18;1.30;;;;;;;24.45;50.74;102702.47;4996577;28;20027;-73
2022/07/09 11:07:22;;;;;;;4.95;1.10;;;;;;;23.91;51.80;102707.13;4996706;28;20030;-72
2022/07/09 11:09:48;;;;;;;3.97;1.17;;;;;;;24.59;49.74;102697.75;4996387;28;20032;-72
2022/07/09 11:12:21;;;;;;;3.25;1.20;;;;;;;23.96;51.18;102707.22;4996234;28;20460;-72
2022/07/09 11:14:50;;;;;;;7.97;1.00;;;;;;;23.56;52.82;102699.97;4996822;28;20088;-73